createdAt,value
2019-06-27T00:00:06.564Z,18.13
2019-06-27T00:01:06.552Z,18.13
2019-06-27T00:02:06.545Z,18.11
2019-06-27T00:03:06.539Z,18.08
2019-06-27T00:04:06.543Z,18.11
2019-06-27T00:05:06.535Z,18.00
2019-06-27T00:06:06.534Z,17.98
2019-06-27T00:07:06.525Z,17.97
2019-06-27T00:08:06.523Z,18.01
2019-06-27T00:09:06.517Z,17.98
2019-06-27T00:10:06.514Z,17.90
2019-06-27T00:11:06.504Z,17.90
2019-06-27T00:12:06.505Z,17.94
2019-06-27T00:13:06.500Z,17.90
2019-06-27T00:14:06.502Z,17.94
2019-06-27T00:15:06.489Z,17.98
2019-06-27T00:16:06.483Z,17.95
2019-06-27T00:17:06.655Z,17.94
2019-06-27T00:18:06.478Z,17.92
2019-06-27T00:19:06.469Z,17.85
2019-06-27T00:20:06.463Z,17.89
2019-06-27T00:21:06.464Z,17.90
2019-06-27T00:22:06.456Z,17.89
2019-06-27T00:23:06.453Z,17.90
2019-06-27T00:24:06.452Z,17.98
2019-06-27T00:25:06.445Z,17.89
2019-06-27T00:26:06.438Z,17.87
2019-06-27T00:27:06.435Z,17.83
2019-06-27T00:28:06.430Z,17.83
2019-06-27T00:29:06.430Z,17.80
2019-06-27T00:30:06.414Z,17.82
2019-06-27T00:31:06.429Z,17.82
2019-06-27T00:32:06.412Z,17.78
2019-06-27T00:33:06.411Z,17.71
2019-06-27T00:34:06.408Z,17.80
2019-06-27T00:35:06.399Z,17.78
2019-06-27T00:36:06.401Z,17.78
2019-06-27T00:37:06.394Z,17.78
2019-06-27T00:38:06.381Z,17.80
2019-06-27T00:39:06.381Z,17.72
2019-06-27T00:40:06.378Z,17.78
2019-06-27T00:41:06.374Z,17.70
2019-06-27T00:42:06.383Z,17.65
2019-06-27T00:43:06.359Z,17.59
2019-06-27T00:44:06.357Z,17.60
2019-06-27T00:45:06.353Z,17.63
2019-06-27T00:46:06.354Z,17.68
2019-06-27T00:47:06.350Z,17.63
2019-06-27T00:48:06.339Z,17.68
2019-06-27T00:49:06.335Z,17.67
2019-06-27T00:50:06.330Z,17.70
2019-06-27T00:51:06.329Z,17.57
2019-06-27T00:52:06.324Z,17.70
2019-06-27T00:53:06.320Z,17.65
2019-06-27T00:54:06.326Z,17.76
2019-06-27T00:55:06.314Z,17.74
2019-06-27T00:56:06.389Z,17.68
2019-06-27T00:57:13.919Z,17.68
2019-06-27T00:58:06.294Z,17.60
2019-06-27T00:59:06.290Z,17.71
2019-06-27T01:00:06.288Z,17.68
2019-06-27T01:01:06.280Z,17.78
2019-06-27T01:02:06.276Z,17.76
2019-06-27T01:03:06.277Z,17.85
2019-06-27T01:04:06.273Z,17.74
2019-06-27T01:05:06.265Z,17.64
2019-06-27T01:06:06.255Z,17.64
2019-06-27T01:07:06.258Z,17.78
2019-06-27T01:08:06.251Z,17.78
2019-06-27T01:09:06.248Z,17.83
2019-06-27T01:10:06.236Z,17.78
2019-06-27T01:11:06.236Z,17.74
2019-06-27T01:12:06.230Z,17.67
2019-06-27T01:13:06.228Z,17.72
2019-06-27T01:14:06.222Z,17.60
2019-06-27T01:15:06.214Z,17.60
2019-06-27T01:16:06.209Z,17.54
2019-06-27T01:17:06.243Z,17.59
2019-06-27T01:18:06.212Z,17.54
2019-06-27T01:19:06.195Z,17.59
2019-06-27T01:20:06.191Z,17.72
2019-06-27T01:21:06.187Z,17.64
2019-06-27T01:22:06.182Z,17.56
2019-06-27T01:23:06.225Z,17.54
2019-06-27T01:24:06.176Z,17.51
2019-06-27T01:25:06.176Z,17.59
2019-06-27T01:26:06.168Z,17.64
2019-06-27T01:27:06.165Z,17.57
2019-06-27T01:28:06.156Z,17.57
2019-06-27T01:29:06.153Z,17.56
2019-06-27T01:30:06.146Z,17.56
2019-06-27T01:31:06.143Z,17.67
2019-06-27T01:32:06.153Z,17.71
2019-06-27T01:33:06.135Z,17.68
2019-06-27T01:34:06.126Z,17.67
2019-06-27T01:35:06.132Z,17.67
2019-06-27T01:36:06.120Z,17.65
2019-06-27T01:37:06.114Z,17.71
2019-06-27T01:38:06.110Z,17.67
2019-06-27T01:39:06.120Z,17.76
2019-06-27T01:40:06.101Z,17.64
2019-06-27T01:41:06.099Z,17.60
2019-06-27T01:42:06.093Z,17.68
2019-06-27T01:43:06.091Z,17.57
2019-06-27T01:44:06.085Z,17.64
2019-06-27T01:45:06.078Z,17.59
2019-06-27T01:46:06.073Z,17.68
2019-06-27T01:47:06.068Z,17.71
2019-06-27T01:48:06.063Z,17.65
2019-06-27T01:49:06.065Z,17.68
2019-06-27T01:50:06.054Z,17.57
2019-06-27T01:51:06.047Z,17.64
2019-06-27T01:52:06.048Z,17.51
2019-06-27T01:53:06.041Z,17.60
2019-06-27T01:54:06.040Z,17.54
2019-06-27T01:55:06.025Z,17.59
2019-06-27T01:56:06.024Z,17.63
2019-06-27T01:57:06.025Z,17.70
2019-06-27T01:58:06.025Z,17.74
2019-06-27T01:59:06.010Z,17.65
2019-06-27T02:00:06.009Z,17.54
2019-06-27T02:01:06.006Z,17.54
2019-06-27T02:02:05.995Z,17.56
2019-06-27T02:03:05.994Z,17.54
2019-06-27T02:04:05.991Z,17.42
2019-06-27T02:05:05.992Z,17.42
2019-06-27T02:06:05.974Z,17.46
2019-06-27T02:07:05.997Z,17.45
2019-06-27T02:08:05.972Z,17.42
2019-06-27T02:09:05.969Z,17.42
2019-06-27T02:10:05.966Z,17.44
2019-06-27T02:11:05.955Z,17.44
2019-06-27T02:12:05.949Z,17.38
2019-06-27T02:13:05.945Z,17.29
2019-06-27T02:14:05.945Z,17.30
2019-06-27T02:15:05.942Z,17.42
2019-06-27T02:16:05.935Z,17.33
2019-06-27T02:17:05.922Z,17.29
2019-06-27T02:18:05.925Z,17.22
2019-06-27T02:19:05.920Z,17.19
2019-06-27T02:20:05.917Z,17.12
2019-06-27T02:21:05.914Z,17.14
2019-06-27T02:22:05.901Z,17.09
2019-06-27T02:23:05.901Z,17.15
2019-06-27T02:24:05.904Z,17.11
2019-06-27T02:25:05.894Z,17.11
2019-06-27T02:26:05.883Z,17.09
2019-06-27T02:27:05.878Z,17.16
2019-06-27T02:28:05.874Z,17.14
2019-06-27T02:29:05.877Z,17.26
2019-06-27T02:30:05.885Z,17.20
2019-06-27T02:31:05.869Z,17.29
2019-06-27T02:32:05.854Z,17.26
2019-06-27T02:33:05.852Z,17.29
2019-06-27T02:34:07.052Z,17.41
2019-06-27T02:35:05.850Z,17.33
2019-06-27T02:36:05.844Z,17.31
2019-06-27T02:37:05.839Z,17.33
2019-06-27T02:38:05.834Z,17.42
2019-06-27T02:39:05.831Z,17.39
2019-06-27T02:40:05.820Z,17.44
2019-06-27T02:41:05.817Z,17.39
2019-06-27T02:42:05.806Z,17.45
2019-06-27T02:43:05.882Z,17.46
2019-06-27T02:44:05.806Z,17.33
2019-06-27T02:45:05.794Z,17.34
2019-06-27T02:46:05.805Z,17.31
2019-06-27T02:47:05.783Z,17.33
2019-06-27T02:48:05.788Z,17.31
2019-06-27T02:49:05.777Z,17.19
2019-06-27T02:50:05.776Z,17.12
2019-06-27T02:51:05.768Z,17.11
2019-06-27T02:52:05.763Z,17.09
2019-06-27T02:53:05.755Z,17.19
2019-06-27T02:54:05.755Z,17.12
2019-06-27T02:55:05.749Z,17.11
2019-06-27T02:56:05.748Z,17.19
2019-06-27T02:57:05.743Z,17.15
2019-06-27T02:58:27.901Z,17.15
2019-06-27T02:59:05.727Z,17.14
2019-06-27T03:00:05.729Z,17.11
2019-06-27T03:01:05.721Z,17.11
2019-06-27T03:02:05.719Z,17.08
2019-06-27T03:03:05.718Z,17.11
2019-06-27T03:04:05.706Z,17.16
2019-06-27T03:05:05.703Z,17.19
2019-06-27T03:06:05.697Z,17.26
2019-06-27T03:07:05.690Z,17.19
2019-06-27T03:08:05.692Z,17.14
2019-06-27T03:09:05.683Z,17.16
2019-06-27T03:10:05.679Z,17.16
2019-06-27T03:11:05.678Z,17.22
2019-06-27T03:12:05.679Z,17.20
2019-06-27T03:13:05.665Z,17.23
2019-06-27T03:14:05.663Z,17.31
2019-06-27T03:15:05.651Z,17.30
2019-06-27T03:16:05.657Z,17.41
2019-06-27T03:17:05.646Z,17.33
2019-06-27T03:18:05.645Z,17.29
2019-06-27T03:19:05.653Z,17.31
2019-06-27T03:20:05.633Z,17.27
2019-06-27T03:21:05.629Z,17.14
2019-06-27T03:22:06.182Z,17.11
2019-06-27T03:23:05.631Z,17.12
2019-06-27T03:24:05.618Z,17.08
2019-06-27T03:25:05.610Z,17.02
2019-06-27T03:26:05.608Z,17.11
2019-06-27T03:27:05.613Z,17.09
2019-06-27T03:28:05.597Z,17.12
2019-06-27T03:29:05.593Z,16.97
2019-06-27T03:30:05.592Z,17.12
2019-06-27T03:31:05.581Z,17.06
2019-06-27T03:32:05.580Z,17.09
2019-06-27T03:33:05.586Z,17.05
2019-06-27T03:34:05.579Z,17.16
2019-06-27T03:35:05.588Z,17.09
2019-06-27T03:36:05.564Z,17.15
2019-06-27T03:37:05.558Z,17.14
2019-06-27T03:38:05.547Z,17.09
2019-06-27T03:39:05.555Z,17.11
2019-06-27T03:40:05.544Z,17.16
2019-06-27T03:41:05.533Z,17.20
2019-06-27T03:42:05.531Z,17.12
2019-06-27T03:43:05.526Z,17.16
2019-06-27T03:44:05.519Z,17.16
2019-06-27T03:45:05.521Z,17.16
2019-06-27T03:46:05.513Z,17.16
2019-06-27T03:47:05.507Z,17.16
2019-06-27T03:48:05.502Z,17.12
2019-06-27T03:49:05.498Z,17.19
2019-06-27T03:50:05.489Z,17.15
2019-06-27T03:51:05.484Z,17.29
2019-06-27T03:52:05.485Z,17.22
2019-06-27T03:53:05.487Z,17.20
2019-06-27T03:54:05.486Z,17.22
2019-06-27T03:55:05.553Z,17.15
2019-06-27T03:56:05.482Z,17.20
2019-06-27T03:57:05.467Z,17.15
2019-06-27T03:58:05.458Z,17.20
2019-06-27T03:59:12.227Z,17.20
2019-06-27T04:00:05.496Z,17.15
2019-06-27T04:01:05.488Z,17.11
2019-06-27T04:02:05.430Z,17.09
2019-06-27T04:03:05.443Z,17.09
2019-06-27T04:04:05.425Z,17.12
2019-06-27T04:05:05.426Z,17.12
2019-06-27T04:06:05.424Z,17.09
2019-06-27T04:07:05.414Z,17.12
2019-06-27T04:08:05.410Z,17.15
2019-06-27T04:09:05.400Z,17.09
2019-06-27T04:10:05.396Z,17.11
2019-06-27T04:11:05.391Z,17.16
2019-06-27T04:12:05.402Z,17.15
2019-06-27T04:13:05.392Z,17.12
2019-06-27T04:14:05.394Z,17.11
2019-06-27T04:15:05.376Z,17.09
2019-06-27T04:16:05.374Z,17.12
2019-06-27T04:17:05.362Z,17.12
2019-06-27T04:18:05.360Z,17.29
2019-06-27T04:19:05.360Z,17.20
2019-06-27T04:20:05.358Z,17.19
2019-06-27T04:21:05.350Z,17.20
2019-06-27T04:22:05.342Z,17.31
2019-06-27T04:23:05.342Z,17.29
2019-06-27T04:24:05.339Z,17.29
2019-06-27T04:25:05.329Z,17.31
2019-06-27T04:26:05.323Z,17.39
2019-06-27T04:27:05.318Z,17.31
2019-06-27T04:28:05.314Z,17.41
2019-06-27T04:29:05.314Z,17.26
2019-06-27T04:30:05.311Z,17.30
2019-06-27T04:31:05.305Z,17.30
2019-06-27T04:32:05.299Z,17.31
2019-06-27T04:33:05.298Z,17.26
2019-06-27T04:34:05.291Z,17.34
2019-06-27T04:35:05.300Z,17.44
2019-06-27T04:36:05.279Z,17.36
2019-06-27T04:37:05.270Z,17.41
2019-06-27T04:38:05.277Z,17.36
2019-06-27T04:39:05.272Z,17.31
2019-06-27T04:40:05.257Z,17.33
2019-06-27T04:41:05.260Z,17.24
2019-06-27T04:42:05.259Z,17.27
2019-06-27T04:43:06.285Z,17.16
2019-06-27T04:44:05.247Z,17.16
2019-06-27T04:45:05.244Z,17.14
2019-06-27T04:46:05.230Z,17.06
2019-06-27T04:47:05.226Z,17.11
2019-06-27T04:48:05.244Z,17.12
2019-06-27T04:49:05.220Z,17.09
2019-06-27T04:50:05.231Z,17.05
2019-06-27T04:51:05.247Z,17.05
2019-06-27T04:52:05.205Z,16.99
2019-06-27T04:53:05.205Z,17.09
2019-06-27T04:54:05.200Z,17.11
2019-06-27T04:55:05.205Z,17.11
2019-06-27T04:56:05.190Z,17.15
2019-06-27T04:57:05.183Z,17.31
2019-06-27T04:58:05.179Z,17.24
2019-06-27T04:59:05.188Z,17.46
2019-06-27T05:00:05.176Z,17.39
2019-06-27T05:01:05.170Z,17.42
2019-06-27T05:02:05.163Z,17.39
2019-06-27T05:03:05.153Z,17.48
2019-06-27T05:04:05.153Z,17.41
2019-06-27T05:05:05.151Z,17.57
2019-06-27T05:06:05.146Z,17.48
2019-06-27T05:07:05.148Z,17.41
2019-06-27T05:08:05.141Z,17.54
2019-06-27T05:09:05.136Z,17.44
2019-06-27T05:10:05.127Z,17.44
2019-06-27T05:11:05.125Z,17.31
2019-06-27T05:12:05.118Z,17.34
2019-06-27T05:13:05.112Z,17.29
2019-06-27T05:14:05.108Z,17.29
2019-06-27T05:15:05.104Z,17.34
2019-06-27T05:16:05.101Z,17.14
2019-06-27T05:17:05.101Z,17.11
2019-06-27T05:18:05.094Z,17.11
2019-06-27T05:19:05.091Z,17.14
2019-06-27T05:20:05.082Z,17.06
2019-06-27T05:21:05.080Z,16.91
2019-06-27T05:22:05.074Z,16.89
2019-06-27T05:23:05.066Z,16.79
2019-06-27T05:24:05.062Z,16.86
2019-06-27T05:25:05.058Z,16.97
2019-06-27T05:26:05.058Z,17.01
2019-06-27T05:27:05.054Z,17.01
2019-06-27T05:28:05.046Z,17.04
2019-06-27T05:29:05.042Z,17.08
2019-06-27T05:30:10.075Z,16.96
2019-06-27T05:31:05.036Z,16.96
2019-06-27T05:32:05.032Z,17.09
2019-06-27T05:33:05.026Z,17.12
2019-06-27T05:34:05.022Z,17.29
2019-06-27T05:35:05.016Z,17.34
2019-06-27T05:36:05.012Z,17.44
2019-06-27T05:37:05.026Z,17.42
2019-06-27T05:38:05.007Z,17.60
2019-06-27T05:39:05.002Z,17.52
2019-06-27T05:40:05.001Z,17.64
2019-06-27T05:41:04.991Z,17.56
2019-06-27T05:42:04.989Z,17.54
2019-06-27T05:43:04.985Z,17.72
2019-06-27T05:44:04.989Z,17.67
2019-06-27T05:45:04.974Z,17.79
2019-06-27T05:46:04.974Z,17.80
2019-06-27T05:47:04.965Z,17.86
2019-06-27T05:48:04.967Z,17.76
2019-06-27T05:49:04.960Z,17.82
2019-06-27T05:50:04.957Z,17.87
2019-06-27T05:51:04.954Z,17.97
2019-06-27T05:52:04.949Z,18.08
2019-06-27T05:53:04.954Z,18.08
2019-06-27T05:54:04.940Z,18.23
2019-06-27T05:55:04.942Z,18.41
2019-06-27T05:56:04.947Z,18.50
2019-06-27T05:57:04.927Z,18.63
2019-06-27T05:58:04.929Z,18.83
2019-06-27T05:59:04.926Z,18.90
2019-06-27T06:00:04.944Z,18.90
2019-06-27T06:01:04.919Z,19.02
2019-06-27T06:02:04.919Z,19.07
2019-06-27T06:03:04.912Z,19.19
2019-06-27T06:04:04.905Z,19.26
2019-06-27T06:05:04.909Z,19.36
2019-06-27T06:06:04.914Z,19.36
2019-06-27T06:07:04.905Z,19.36
2019-06-27T06:08:04.903Z,19.34
2019-06-27T06:09:04.902Z,19.36
2019-06-27T06:10:04.914Z,19.26
2019-06-27T06:11:04.896Z,19.24
2019-06-27T06:12:04.897Z,19.19
2019-06-27T06:13:04.904Z,19.19
2019-06-27T06:14:04.895Z,19.19
2019-06-27T06:15:04.895Z,19.19
2019-06-27T06:16:04.895Z,19.26
2019-06-27T06:17:04.906Z,19.41
2019-06-27T06:18:04.888Z,19.39
2019-06-27T06:19:04.889Z,19.51
2019-06-27T06:20:04.903Z,19.52
2019-06-27T06:21:04.891Z,19.44
2019-06-27T06:22:04.892Z,19.47
2019-06-27T06:23:04.890Z,19.31
2019-06-27T06:24:04.887Z,19.34
2019-06-27T06:25:04.900Z,19.44
2019-06-27T06:26:05.060Z,19.56
2019-06-27T06:27:04.891Z,19.54
2019-06-27T06:28:04.886Z,19.66
2019-06-27T06:29:04.888Z,19.69
2019-06-27T06:30:04.928Z,19.89
2019-06-27T06:31:04.887Z,20.00
2019-06-27T06:32:04.897Z,20.04
2019-06-27T06:33:04.893Z,20.07
2019-06-27T06:34:04.895Z,20.13
2019-06-27T06:35:04.890Z,20.21
2019-06-27T06:36:04.893Z,20.32
2019-06-27T06:37:08.051Z,20.26
2019-06-27T06:38:04.889Z,20.29
2019-06-27T06:39:04.888Z,20.39
2019-06-27T06:40:04.946Z,20.50
2019-06-27T06:41:04.894Z,20.51
2019-06-27T06:42:04.892Z,20.51
2019-06-27T06:43:04.968Z,20.52
2019-06-27T06:44:04.907Z,20.66
2019-06-27T06:45:04.901Z,20.67
2019-06-27T06:46:04.897Z,20.70
2019-06-27T06:47:04.906Z,20.67
2019-06-27T06:48:04.924Z,20.85
2019-06-27T06:49:04.917Z,20.90
2019-06-27T06:50:04.903Z,20.84
2019-06-27T06:51:04.903Z,20.92
2019-06-27T06:52:04.905Z,20.97
2019-06-27T06:53:04.910Z,21.09
2019-06-27T06:54:04.905Z,21.20
2019-06-27T06:55:04.915Z,21.15
2019-06-27T06:56:04.914Z,21.20
2019-06-27T06:57:04.913Z,21.20
2019-06-27T06:58:04.918Z,21.37
2019-06-27T06:59:04.925Z,21.39
2019-06-27T07:00:04.913Z,21.45
2019-06-27T07:01:04.927Z,21.45
2019-06-27T07:02:04.929Z,21.36
2019-06-27T07:03:04.928Z,21.52
2019-06-27T07:04:04.933Z,21.61
2019-06-27T07:05:04.925Z,21.72
2019-06-27T07:06:04.934Z,21.79
2019-06-27T07:07:04.936Z,21.82
2019-06-27T07:08:04.943Z,21.91
2019-06-27T07:09:04.948Z,21.80
2019-06-27T07:10:04.948Z,21.70
2019-06-27T07:11:04.956Z,21.70
2019-06-27T07:12:04.955Z,21.70
2019-06-27T07:13:04.960Z,21.69
2019-06-27T07:14:04.956Z,21.85
2019-06-27T07:15:04.959Z,21.91
2019-06-27T07:16:05.011Z,22.00
2019-06-27T07:17:04.976Z,22.10
2019-06-27T07:18:04.978Z,22.13
2019-06-27T07:19:04.978Z,22.15
2019-06-27T07:20:04.985Z,22.29
2019-06-27T07:21:04.984Z,22.53
2019-06-27T07:22:04.993Z,22.72
2019-06-27T07:23:04.994Z,22.81
2019-06-27T07:24:04.997Z,22.80
2019-06-27T07:25:05.000Z,22.60
2019-06-27T07:26:05.008Z,22.59
2019-06-27T07:27:05.009Z,22.66
2019-06-27T07:28:05.016Z,22.75
2019-06-27T07:29:05.021Z,22.81
2019-06-27T07:30:05.021Z,22.78
2019-06-27T07:31:17.151Z,23.03
2019-06-27T07:32:05.037Z,23.15
2019-06-27T07:33:05.031Z,23.21
2019-06-27T07:34:05.041Z,23.17
2019-06-27T07:35:05.045Z,22.94
2019-06-27T07:36:05.046Z,22.81
2019-06-27T07:37:05.050Z,22.76
2019-06-27T07:38:05.057Z,22.69
2019-06-27T07:39:05.063Z,22.68
2019-06-27T07:40:05.063Z,22.78
2019-06-27T07:41:05.080Z,22.88
2019-06-27T07:42:05.069Z,23.09
2019-06-27T07:43:05.077Z,23.10
2019-06-27T07:44:05.082Z,23.08
2019-06-27T07:45:05.086Z,23.17
2019-06-27T07:46:05.131Z,23.06
2019-06-27T07:47:05.102Z,23.06
2019-06-27T07:48:05.106Z,23.13
2019-06-27T07:49:05.108Z,23.24
2019-06-27T07:50:05.108Z,23.34
2019-06-27T07:51:05.147Z,23.40
2019-06-27T07:52:05.133Z,23.25
2019-06-27T07:53:05.128Z,23.25
2019-06-27T07:54:05.132Z,23.24
2019-06-27T07:55:05.143Z,23.46
2019-06-27T07:56:05.142Z,23.56
2019-06-27T07:57:05.150Z,23.58
2019-06-27T07:58:05.150Z,23.34
2019-06-27T07:59:05.160Z,23.15
2019-06-27T08:00:05.216Z,23.21
2019-06-27T08:01:05.175Z,23.34
2019-06-27T08:02:05.171Z,23.69
2019-06-27T08:03:05.195Z,23.76
2019-06-27T08:04:05.201Z,23.77
2019-06-27T08:05:05.196Z,23.62
2019-06-27T08:06:05.199Z,23.28
2019-06-27T08:07:05.200Z,23.27
2019-06-27T08:08:05.210Z,23.32
2019-06-27T08:09:05.215Z,23.39
2019-06-27T08:10:05.217Z,23.63
2019-06-27T08:11:05.227Z,23.69
2019-06-27T08:12:05.227Z,23.86
2019-06-27T08:13:05.234Z,24.05
2019-06-27T08:14:05.243Z,24.16
2019-06-27T08:15:05.245Z,24.10
2019-06-27T08:16:05.259Z,24.02
2019-06-27T08:17:05.254Z,24.01
2019-06-27T08:18:05.257Z,23.88
2019-06-27T08:19:05.263Z,23.76
2019-06-27T08:20:05.276Z,23.88
2019-06-27T08:21:05.286Z,23.96
2019-06-27T08:22:05.280Z,24.30
2019-06-27T08:23:05.293Z,24.54
2019-06-27T08:24:05.300Z,24.78
2019-06-27T08:25:05.298Z,24.80
2019-06-27T08:26:05.303Z,24.76
2019-06-27T08:27:05.313Z,24.47
2019-06-27T08:28:05.325Z,24.38
2019-06-27T08:29:05.325Z,24.38
2019-06-27T08:30:08.269Z,24.35
2019-06-27T08:31:05.331Z,24.47
2019-06-27T08:32:05.338Z,24.38
2019-06-27T08:33:05.346Z,24.35
2019-06-27T08:34:05.354Z,24.35
2019-06-27T08:35:05.356Z,24.33
2019-06-27T08:36:05.448Z,24.13
2019-06-27T08:37:05.376Z,24.06
2019-06-27T08:38:05.374Z,24.10
2019-06-27T08:39:05.373Z,24.33
2019-06-27T08:40:05.381Z,24.14
2019-06-27T08:41:05.468Z,24.01
2019-06-27T08:42:05.392Z,23.87
2019-06-27T08:43:05.394Z,23.76
2019-06-27T08:44:05.401Z,23.61
2019-06-27T08:45:05.459Z,23.69
2019-06-27T08:46:05.410Z,23.71
2019-06-27T08:47:05.559Z,23.77
2019-06-27T08:48:05.473Z,23.76
2019-06-27T08:49:05.969Z,23.66
2019-06-27T08:50:05.578Z,23.58
2019-06-27T08:51:05.427Z,23.62
2019-06-27T08:52:05.426Z,23.63
2019-06-27T08:53:05.427Z,23.61
2019-06-27T08:54:05.426Z,23.44
2019-06-27T08:55:05.431Z,23.17
2019-06-27T08:56:05.434Z,23.09
2019-06-27T08:57:05.438Z,23.28
2019-06-27T08:58:05.437Z,23.31
2019-06-27T08:59:05.436Z,23.66
2019-06-27T09:00:05.438Z,23.86
2019-06-27T09:01:05.491Z,24.02
2019-06-27T09:02:09.214Z,24.10
2019-06-27T09:03:05.462Z,24.35
2019-06-27T09:04:05.455Z,24.45
2019-06-27T09:05:05.457Z,24.42
2019-06-27T09:06:05.455Z,24.42
2019-06-27T09:07:05.467Z,24.74
2019-06-27T09:08:05.465Z,24.85
2019-06-27T09:09:05.473Z,24.92
2019-06-27T09:10:05.475Z,24.77
2019-06-27T09:11:05.474Z,24.66
2019-06-27T09:12:05.481Z,24.69
2019-06-27T09:13:05.490Z,24.61
2019-06-27T09:14:05.494Z,24.76
2019-06-27T09:15:05.493Z,24.85
2019-06-27T09:16:05.500Z,24.80
2019-06-27T09:17:05.500Z,24.81
2019-06-27T09:18:05.508Z,24.96
2019-06-27T09:19:05.512Z,25.18
2019-06-27T09:20:05.515Z,25.22
2019-06-27T09:21:05.519Z,25.13
2019-06-27T09:22:05.519Z,25.01
2019-06-27T09:23:05.530Z,25.07
2019-06-27T09:24:05.535Z,24.99
2019-06-27T09:25:05.537Z,25.14
2019-06-27T09:26:05.542Z,25.11
2019-06-27T09:27:05.549Z,25.17
2019-06-27T09:28:05.551Z,25.33
2019-06-27T09:29:05.577Z,25.35
2019-06-27T09:30:05.572Z,25.55
2019-06-27T09:31:05.575Z,25.75
2019-06-27T09:32:05.603Z,25.98
2019-06-27T09:33:05.647Z,26.00
2019-06-27T09:34:05.587Z,26.06
2019-06-27T09:35:05.594Z,26.22
2019-06-27T09:36:05.597Z,26.09
2019-06-27T09:37:05.605Z,25.85
2019-06-27T09:38:05.616Z,25.85
2019-06-27T09:39:05.620Z,25.88
2019-06-27T09:40:05.625Z,25.99
2019-06-27T09:41:05.632Z,26.07
2019-06-27T09:42:05.641Z,26.05
2019-06-27T09:43:05.658Z,25.96
2019-06-27T09:44:05.655Z,25.93
2019-06-27T09:45:05.707Z,25.85
2019-06-27T09:46:05.683Z,25.88
2019-06-27T09:47:05.677Z,25.88
2019-06-27T09:48:05.689Z,26.07
2019-06-27T09:49:05.692Z,26.16
2019-06-27T09:50:05.701Z,26.09
2019-06-27T09:51:05.716Z,25.95
2019-06-27T09:52:05.722Z,25.96
2019-06-27T09:53:05.731Z,26.40
2019-06-27T09:54:05.731Z,26.92
2019-06-27T09:55:05.732Z,27.11
2019-06-27T09:56:05.749Z,27.25
2019-06-27T09:57:05.747Z,27.42
2019-06-27T09:58:05.766Z,27.65
2019-06-27T09:59:05.767Z,27.75
2019-06-27T10:00:05.777Z,27.86
2019-06-27T10:01:06.330Z,28.05
2019-06-27T10:02:05.792Z,27.83
2019-06-27T10:03:05.794Z,28.04
2019-06-27T10:04:05.803Z,28.05
2019-06-27T10:05:05.815Z,28.17
2019-06-27T10:06:05.829Z,28.17
2019-06-27T10:07:05.831Z,28.35
2019-06-27T10:08:05.838Z,28.47
2019-06-27T10:09:05.913Z,28.60
2019-06-27T10:10:05.878Z,28.52
2019-06-27T10:11:05.867Z,28.49
2019-06-27T10:12:05.882Z,28.48
2019-06-27T10:13:05.887Z,28.48
2019-06-27T10:14:05.894Z,28.51
2019-06-27T10:15:05.899Z,28.51
2019-06-27T10:16:05.915Z,28.59
2019-06-27T10:17:05.920Z,28.67
2019-06-27T10:18:05.933Z,28.85
2019-06-27T10:19:05.939Z,29.20
2019-06-27T10:20:05.949Z,29.38
2019-06-27T10:21:05.958Z,29.44
2019-06-27T10:22:05.964Z,29.32
2019-06-27T10:23:05.968Z,29.32
2019-06-27T10:24:05.991Z,29.24
2019-06-27T10:25:05.990Z,29.20
2019-06-27T10:26:05.998Z,29.36
2019-06-27T10:27:06.011Z,29.22
2019-06-27T10:28:06.013Z,29.19
2019-06-27T10:29:06.024Z,29.35
2019-06-27T10:30:06.030Z,29.19
2019-06-27T10:31:06.046Z,29.02
2019-06-27T10:32:06.061Z,28.76
2019-06-27T10:33:06.065Z,28.69
2019-06-27T10:34:06.084Z,28.45
2019-06-27T10:35:06.088Z,28.42
2019-06-27T10:36:06.103Z,28.27
2019-06-27T10:37:06.113Z,28.22
2019-06-27T10:38:06.112Z,27.90
2019-06-27T10:39:06.123Z,27.75
2019-06-27T10:40:06.137Z,27.92
2019-06-27T10:41:06.145Z,27.87
2019-06-27T10:42:06.151Z,27.85
2019-06-27T10:43:06.166Z,28.00
2019-06-27T10:44:06.173Z,28.05
2019-06-27T10:45:06.183Z,28.39
2019-06-27T10:46:06.189Z,28.62
2019-06-27T10:47:06.203Z,28.76
2019-06-27T10:48:06.210Z,28.94
2019-06-27T10:49:06.259Z,29.02
2019-06-27T10:50:06.247Z,29.16
2019-06-27T10:51:06.248Z,29.17
2019-06-27T10:52:06.260Z,29.14
2019-06-27T10:53:06.263Z,29.41
2019-06-27T10:54:06.281Z,29.71
2019-06-27T10:55:06.281Z,29.90
2019-06-27T10:56:06.291Z,30.10
2019-06-27T10:57:06.301Z,30.31
2019-06-27T10:58:06.310Z,30.68
2019-06-27T10:59:06.317Z,30.75
2019-06-27T11:00:06.416Z,30.70
2019-06-27T11:01:06.397Z,30.55
2019-06-27T11:02:06.347Z,30.28
2019-06-27T11:03:15.443Z,30.15
2019-06-27T11:04:06.367Z,30.05
2019-06-27T11:05:06.375Z,30.15
2019-06-27T11:06:06.383Z,30.31
2019-06-27T11:07:06.398Z,30.30
2019-06-27T11:08:06.408Z,30.21
2019-06-27T11:09:06.489Z,30.13
2019-06-27T11:10:06.425Z,29.79
2019-06-27T11:11:06.436Z,29.65
2019-06-27T11:12:06.445Z,29.38
2019-06-27T11:13:06.467Z,29.12
2019-06-27T11:14:06.464Z,28.97
2019-06-27T11:15:06.475Z,29.39
2019-06-27T11:16:06.488Z,29.42
2019-06-27T11:17:06.503Z,29.60
2019-06-27T11:18:06.513Z,29.59
2019-06-27T11:19:06.539Z,29.76
2019-06-27T11:20:06.519Z,30.02
2019-06-27T11:21:06.537Z,30.46
2019-06-27T11:22:06.545Z,30.68
2019-06-27T11:23:06.554Z,30.68
2019-06-27T11:24:06.565Z,30.70
2019-06-27T11:25:06.581Z,30.50
2019-06-27T11:26:09.404Z,30.13
2019-06-27T11:27:06.609Z,29.76
2019-06-27T11:28:09.265Z,29.76
2019-06-27T11:29:06.608Z,29.54
2019-06-27T11:30:07.034Z,29.49
2019-06-27T11:31:06.646Z,29.51
2019-06-27T11:32:06.644Z,29.38
2019-06-27T11:33:06.660Z,29.22
2019-06-27T11:34:06.662Z,29.23
2019-06-27T11:35:06.677Z,29.07
2019-06-27T11:36:06.683Z,29.01
2019-06-27T11:37:06.692Z,28.93
2019-06-27T11:38:06.713Z,28.79
2019-06-27T11:39:06.730Z,28.76
2019-06-27T11:40:06.728Z,28.76
2019-06-27T11:41:06.737Z,28.78
2019-06-27T11:42:06.747Z,28.79
2019-06-27T11:43:06.803Z,28.96
2019-06-27T11:44:06.764Z,29.50
2019-06-27T11:45:06.776Z,29.34
2019-06-27T11:46:08.892Z,29.31
2019-06-27T11:47:06.806Z,29.24
2019-06-27T11:48:06.813Z,29.22
2019-06-27T11:49:06.820Z,29.13
2019-06-27T11:50:06.828Z,29.04
2019-06-27T11:51:06.838Z,28.93
2019-06-27T11:52:06.843Z,28.93
2019-06-27T11:53:06.855Z,29.08
2019-06-27T11:54:06.883Z,29.23
2019-06-27T11:55:06.885Z,29.47
2019-06-27T11:56:06.891Z,29.69
2019-06-27T11:57:06.901Z,29.63
2019-06-27T11:58:06.911Z,29.54
2019-06-27T11:59:06.916Z,29.34
2019-06-27T12:00:06.941Z,29.02
2019-06-27T12:01:06.943Z,28.85
2019-06-27T12:02:06.955Z,28.75
2019-06-27T12:03:06.952Z,28.60
2019-06-27T12:04:06.975Z,28.72
2019-06-27T12:05:06.974Z,28.82
2019-06-27T12:06:06.997Z,28.89
2019-06-27T12:07:06.990Z,29.05
2019-06-27T12:08:10.824Z,29.32
2019-06-27T12:09:07.014Z,29.27
2019-06-27T12:10:07.026Z,29.31
2019-06-27T12:11:07.041Z,29.14
2019-06-27T12:12:07.057Z,29.63
2019-06-27T12:13:07.060Z,29.66
2019-06-27T12:14:07.069Z,29.72
2019-06-27T12:15:07.092Z,29.91
2019-06-27T12:16:07.086Z,30.28
2019-06-27T12:17:07.111Z,30.50
2019-06-27T12:18:07.117Z,30.66
2019-06-27T12:19:07.118Z,31.00
2019-06-27T12:20:07.131Z,30.94
2019-06-27T12:21:07.138Z,30.87
2019-06-27T12:22:07.147Z,30.59
2019-06-27T12:23:07.167Z,30.31
2019-06-27T12:24:07.162Z,30.13
2019-06-27T12:25:07.174Z,29.78
2019-06-27T12:26:07.185Z,29.50
2019-06-27T12:27:07.194Z,29.35
2019-06-27T12:28:07.213Z,29.35
2019-06-27T12:29:07.204Z,29.36
2019-06-27T12:30:07.230Z,29.51
2019-06-27T12:31:19.828Z,29.44
2019-06-27T12:32:07.250Z,29.36
2019-06-27T12:33:07.246Z,29.13
2019-06-27T12:34:07.889Z,29.22
2019-06-27T12:35:07.264Z,29.53
2019-06-27T12:36:07.273Z,29.66
2019-06-27T12:37:07.289Z,29.61
2019-06-27T12:38:07.297Z,29.63
2019-06-27T12:39:07.324Z,29.44
2019-06-27T12:40:07.321Z,29.38
2019-06-27T12:41:07.325Z,29.19
2019-06-27T12:42:07.331Z,29.16
2019-06-27T12:43:07.361Z,29.14
2019-06-27T12:44:07.345Z,29.01
2019-06-27T12:45:07.382Z,28.85
2019-06-27T12:46:07.376Z,28.78
2019-06-27T12:47:07.374Z,28.78
2019-06-27T12:48:07.864Z,28.93
2019-06-27T12:49:07.398Z,29.05
2019-06-27T12:50:07.448Z,29.36
2019-06-27T12:51:07.414Z,29.41
2019-06-27T12:52:07.424Z,29.35